sensor_id;sensor_type;location;lat;lon;timestamp;pressure;altitude;pressure_sealevel;temperature;humidity
33265;BME280;31404;53.974;-1.086;2023-01-31T00:00:36;102123.41;;;7.20;85.48
33265;BME280;31404;53.974;-1.086;2023-01-31T00:05:34;102107.09;;;7.17;83.07
33265;BME280;31404;53.974;-1.086;2023-01-31T00:10:35;102102.89;;;6.43;87.23
33265;BME280;31404;53.974;-1.086;2023-01-31T00:15:35;102085.29;;;6.31;88.02
33265;BME280;31404;53.974;-1.086;2023-01-31T00:20:35;102067.35;;;5.60;91.87
33265;BME280;31404;53.974;-1.086;2023-01-31T00:25:32;102059.62;;;5.04;96.41
33265;BME280;31404;53.974;-1.086;2023-01-31T00:30:35;102043.65;;;3.88;100.00
33265;BME280;31404;53.974;-1.086;2023-01-31T00:35:38;102031.75;;;4.76;97.90
33265;BME280;31404;53.974;-1.086;2023-01-31T00:40:35;102028.10;;;5.22;94.66
33265;BME280;31404;53.974;-1.086;2023-01-31T00:45:35;102029.70;;;5.59;92.63
33265;BME280;31404;53.974;-1.086;2023-01-31T00:50:35;102023.51;;;7.10;86.12
33265;BME280;31404;53.974;-1.086;2023-01-31T00:55:34;102005.16;;;6.37;87.32
33265;BME280;31404;53.974;-1.086;2023-01-31T01:00:34;101999.39;;;6.96;83.55
33265;BME280;31404;53.974;-1.086;2023-01-31T01:05:35;101992.02;;;6.73;86.24
33265;BME280;31404;53.974;-1.086;2023-01-31T01:10:34;101991.77;;;6.76;84.69
33265;BME280;31404;53.974;-1.086;2023-01-31T01:15:37;101985.23;;;7.27;83.58
33265;BME280;31404;53.974;-1.086;2023-01-31T01:20:35;101966.11;;;6.91;85.09
33265;BME280;31404;53.974;-1.086;2023-01-31T01:30:36;101953.67;;;6.52;86.01
33265;BME280;31404;53.974;-1.086;2023-01-31T01:40:36;101956.41;;;5.40;92.59
33265;BME280;31404;53.974;-1.086;2023-01-31T01:45:35;101953.60;;;4.67;95.57
33265;BME280;31404;53.974;-1.086;2023-01-31T01:55:37;101932.07;;;6.49;87.50
33265;BME280;31404;53.974;-1.086;2023-01-31T02:00:35;101942.97;;;6.18;89.11
33265;BME280;31404;53.974;-1.086;2023-01-31T02:15:34;101936.90;;;6.47;85.92
33265;BME280;31404;53.974;-1.086;2023-01-31T02:50:40;101884.79;;;6.70;87.53
33265;BME280;31404;53.974;-1.086;2023-01-31T03:00:37;101869.32;;;6.57;91.76
33265;BME280;31404;53.974;-1.086;2023-01-31T03:05:37;101876.84;;;7.02;89.87
33265;BME280;31404;53.974;-1.086;2023-01-31T03:15:41;101843.00;;;7.35;87.67
33265;BME280;31404;53.974;-1.086;2023-01-31T03:25:36;101839.81;;;5.57;97.13
33265;BME280;31404;53.974;-1.086;2023-01-31T03:35:37;101851.50;;;6.21;96.79
33265;BME280;31404;53.974;-1.086;2023-01-31T03:40:38;101833.51;;;7.33;90.23
33265;BME280;31404;53.974;-1.086;2023-01-31T03:45:39;101825.90;;;7.45;88.74
33265;BME280;31404;53.974;-1.086;2023-01-31T04:00:36;101804.07;;;4.98;100.00
33265;BME280;31404;53.974;-1.086;2023-01-31T04:05:35;101804.58;;;4.44;100.00
33265;BME280;31404;53.974;-1.086;2023-01-31T04:10:35;101794.38;;;4.66;100.00
33265;BME280;31404;53.974;-1.086;2023-01-31T04:15:34;101786.00;;;4.50;100.00
33265;BME280;31404;53.974;-1.086;2023-01-31T04:20:35;101793.27;;;5.19;100.00
33265;BME280;31404;53.974;-1.086;2023-01-31T04:25:34;101790.23;;;5.37;100.00
33265;BME280;31404;53.974;-1.086;2023-01-31T04:30:34;101796.68;;;6.96;99.06
33265;BME280;31404;53.974;-1.086;2023-01-31T04:35:34;101798.09;;;6.64;100.00
33265;BME280;31404;53.974;-1.086;2023-01-31T04:40:34;101784.28;;;6.05;100.00
33265;BME280;31404;53.974;-1.086;2023-01-31T04:45:34;101771.81;;;5.34;100.00
33265;BME280;31404;53.974;-1.086;2023-01-31T04:50:34;101765.84;;;5.30;100.00
33265;BME280;31404;53.974;-1.086;2023-01-31T04:55:35;101757.12;;;5.56;100.00
33265;BME280;31404;53.974;-1.086;2023-01-31T05:00:35;101766.68;;;5.55;100.00
33265;BME280;31404;53.974;-1.086;2023-01-31T05:05:35;101770.63;;;5.87;100.00
33265;BME280;31404;53.974;-1.086;2023-01-31T05:10:34;101772.04;;;6.54;100.00
33265;BME280;31404;53.974;-1.086;2023-01-31T05:15:35;101773.27;;;5.42;100.00
33265;BME280;31404;53.974;-1.086;2023-01-31T05:20:36;101770.80;;;5.51;100.00
33265;BME280;31404;53.974;-1.086;2023-01-31T05:25:36;101754.67;;;6.14;100.00
33265;BME280;31404;53.974;-1.086;2023-01-31T05:30:35;101741.01;;;5.46;100.00
33265;BME280;31404;53.974;-1.086;2023-01-31T05:35:34;101724.31;;;6.34;100.00
33265;BME280;31404;53.974;-1.086;2023-01-31T05:40:34;101714.36;;;7.48;100.00
33265;BME280;31404;53.974;-1.086;2023-01-31T05:45:34;101710.56;;;6.21;100.00
33265;BME280;31404;53.974;-1.086;2023-01-31T05:50:34;101692.79;;;6.51;100.00
33265;BME280;31404;53.974;-1.086;2023-01-31T05:55:35;101683.27;;;6.99;100.00
33265;BME280;31404;53.974;-1.086;2023-01-31T06:00:35;101681.07;;;5.68;100.00
33265;BME280;31404;53.974;-1.086;2023-01-31T06:05:35;101675.93;;;5.81;100.00
33265;BME280;31404;53.974;-1.086;2023-01-31T06:10:34;101670.44;;;7.50;100.00
33265;BME280;31404;53.974;-1.086;2023-01-31T06:15:34;101660.91;;;6.70;100.00
33265;BME280;31404;53.974;-1.086;2023-01-31T06:20:35;101664.49;;;6.95;100.00
33265;BME280;31404;53.974;-1.086;2023-01-31T06:25:37;101647.36;;;6.83;100.00
33265;BME280;31404;53.974;-1.086;2023-01-31T06:30:35;101652.73;;;7.51;100.00
33265;BME280;31404;53.974;-1.086;2023-01-31T06:40:34;101639.18;;;6.38;100.00
33265;BME280;31404;53.974;-1.086;2023-01-31T06:45:34;101628.82;;;6.88;100.00
33265;BME280;31404;53.974;-1.086;2023-01-31T06:50:35;101634.42;;;5.68;100.00
33265;BME280;31404;53.974;-1.086;2023-01-31T06:55:35;101628.54;;;5.77;100.00
33265;BME280;31404;53.974;-1.086;2023-01-31T07:00:34;101626.11;;;6.19;100.00
33265;BME280;31404;53.974;-1.086;2023-01-31T07:05:34;101619.21;;;6.12;100.00
33265;BME280;31404;53.974;-1.086;2023-01-31T07:10:34;101607.57;;;6.83;100.00
33265;BME280;31404;53.974;-1.086;2023-01-31T07:15:34;101641.81;;;7.05;100.00
33265;BME280;31404;53.974;-1.086;2023-01-31T07:20:35;101641.46;;;6.74;100.00
33265;BME280;31404;53.974;-1.086;2023-01-31T07:25:35;101644.68;;;6.40;100.00
33265;BME280;31404;53.974;-1.086;2023-01-31T07:30:35;101655.40;;;6.41;100.00
33265;BME280;31404;53.974;-1.086;2023-01-31T07:35:35;101639.90;;;6.15;100.00
33265;BME280;31404;53.974;-1.086;2023-01-31T07:40:35;101662.43;;;6.50;100.00
33265;BME280;31404;53.974;-1.086;2023-01-31T07:45:34;101682.75;;;5.18;100.00
33265;BME280;31404;53.974;-1.086;2023-01-31T07:50:34;101668.37;;;6.14;100.00
33265;BME280;31404;53.974;-1.086;2023-01-31T07:55:34;101676.26;;;5.05;100.00
33265;BME280;31404;53.974;-1.086;2023-01-31T08:00:35;101691.75;;;5.85;100.00
33265;BME280;31404;53.974;-1.086;2023-01-31T08:05:36;101693.75;;;4.69;100.00
33265;BME280;31404;53.974;-1.086;2023-01-31T08:10:34;101698.19;;;5.70;98.97
33265;BME280;31404;53.974;-1.086;2023-01-31T08:15:34;101702.36;;;4.88;98.79
33265;BME280;31404;53.974;-1.086;2023-01-31T08:20:35;101695.95;;;4.03;100.00
33265;BME280;31404;53.974;-1.086;2023-01-31T08:25:35;101679.99;;;4.22;99.86
33265;BME280;31404;53.974;-1.086;2023-01-31T08:35:35;101681.20;;;4.84;94.58
33265;BME280;31404;53.974;-1.086;2023-01-31T08:40:35;101696.43;;;4.35;97.61
33265;BME280;31404;53.974;-1.086;2023-01-31T08:45:35;101687.13;;;4.30;97.54
33265;BME280;31404;53.974;-1.086;2023-01-31T08:50:34;101699.40;;;4.03;99.85
33265;BME280;31404;53.974;-1.086;2023-01-31T08:55:35;101697.97;;;4.12;99.48
33265;BME280;31404;53.974;-1.086;2023-01-31T09:00:34;101704.98;;;4.02;98.87
33265;BME280;31404;53.974;-1.086;2023-01-31T09:05:34;101685.92;;;3.84;97.54
33265;BME280;31404;53.974;-1.086;2023-01-31T09:10:34;101689.46;;;4.71;93.47
33265;BME280;31404;53.974;-1.086;2023-01-31T09:15:34;101692.39;;;4.52;94.10
33265;BME280;31404;53.974;-1.086;2023-01-31T09:20:34;101686.99;;;4.09;93.55
33265;BME280;31404;53.974;-1.086;2023-01-31T09:25:34;101699.47;;;4.99;90.87
33265;BME280;31404;53.974;-1.086;2023-01-31T09:30:34;101704.69;;;4.66;92.79
33265;BME280;31404;53.974;-1.086;2023-01-31T09:35:34;101711.94;;;4.51;95.84
33265;BME280;31404;53.974;-1.086;2023-01-31T09:40:38;101719.47;;;3.37;100.00
33265;BME280;31404;53.974;-1.086;2023-01-31T09:45:38;101708.82;;;3.93;100.00
33265;BME280;31404;53.974;-1.086;2023-01-31T09:50:39;101710.47;;;3.93;100.00
33265;BME280;31404;53.974;-1.086;2023-01-31T10:05:39;101750.79;;;3.92;100.00
33265;BME280;31404;53.974;-1.086;2023-01-31T10:10:38;101742.41;;;4.00;94.14
33265;BME280;31404;53.974;-1.086;2023-01-31T10:15:39;101763.53;;;3.99;92.99
33265;BME280;31404;53.974;-1.086;2023-01-31T10:25:39;101785.76;;;3.93;93.93
33265;BME280;31404;53.974;-1.086;2023-01-31T10:30:39;101792.07;;;4.00;92.76
33265;BME280;31404;53.974;-1.086;2023-01-31T10:35:38;101808.02;;;3.92;92.72
33265;BME280;31404;53.974;-1.086;2023-01-31T10:40:36;101815.60;;;4.21;91.43
33265;BME280;31404;53.974;-1.086;2023-01-31T10:45:34;101826.59;;;3.88;92.32
33265;BME280;31404;53.974;-1.086;2023-01-31T11:00:35;101821.33;;;4.42;88.15
33265;BME280;31404;53.974;-1.086;2023-01-31T11:05:38;101835.74;;;4.33;88.69
33265;BME280;31404;53.974;-1.086;2023-01-31T11:15:36;101858.98;;;4.89;85.96
33265;BME280;31404;53.974;-1.086;2023-01-31T11:20:36;101855.79;;;4.52;86.26
33265;BME280;31404;53.974;-1.086;2023-01-31T11:25:35;101862.00;;;5.06;83.82
33265;BME280;31404;53.974;-1.086;2023-01-31T11:35:35;101871.25;;;5.03;84.91
33265;BME280;31404;53.974;-1.086;2023-01-31T11:40:36;101906.63;;;3.98;90.58
33265;BME280;31404;53.974;-1.086;2023-01-31T11:45:36;101917.70;;;3.61;93.75
33265;BME280;31404;53.974;-1.086;2023-01-31T11:50:37;101911.96;;;3.71;93.81
33265;BME280;31404;53.974;-1.086;2023-01-31T11:55:37;101913.99;;;3.68;92.93
33265;BME280;31404;53.974;-1.086;2023-01-31T12:00:35;101927.38;;;3.51;93.25
33265;BME280;31404;53.974;-1.086;2023-01-31T12:05:37;101925.77;;;3.49;94.15
33265;BME280;31404;53.974;-1.086;2023-01-31T12:15:35;101890.94;;;3.59;85.75
33265;BME280;31404;53.974;-1.086;2023-01-31T12:20:40;101886.48;;;3.94;84.40
33265;BME280;31404;53.974;-1.086;2023-01-31T12:40:39;101907.61;;;3.17;81.76
33265;BME280;31404;53.974;-1.086;2023-01-31T13:10:37;101890.53;;;4.16;74.64
33265;BME280;31404;53.974;-1.086;2023-01-31T13:25:38;101893.59;;;4.10;73.40
33265;BME280;31404;53.974;-1.086;2023-01-31T13:30:37;101903.65;;;3.77;75.57
33265;BME280;31404;53.974;-1.086;2023-01-31T13:55:38;101872.34;;;4.64;75.76
33265;BME280;31404;53.974;-1.086;2023-01-31T14:00:38;101860.42;;;4.06;75.35
33265;BME280;31404;53.974;-1.086;2023-01-31T14:10:41;101861.44;;;4.20;74.37
33265;BME280;31404;53.974;-1.086;2023-01-31T14:20:35;101875.69;;;4.55;73.43
33265;BME280;31404;53.974;-1.086;2023-01-31T15:00:37;101877.22;;;4.30;76.61
33265;BME280;31404;53.974;-1.086;2023-01-31T15:15:37;101861.23;;;3.93;77.42
33265;BME280;31404;53.974;-1.086;2023-01-31T15:20:39;101858.47;;;4.14;77.43
33265;BME280;31404;53.974;-1.086;2023-01-31T15:30:35;101858.73;;;3.38;79.50
33265;BME280;31404;53.974;-1.086;2023-01-31T15:40:35;101856.35;;;3.14;79.09
33265;BME280;31404;53.974;-1.086;2023-01-31T15:45:35;101871.67;;;3.13;79.42
33265;BME280;31404;53.974;-1.086;2023-01-31T15:50:34;101864.48;;;3.71;79.87
33265;BME280;31404;53.974;-1.086;2023-01-31T15:55:35;101864.05;;;3.46;85.10
33265;BME280;31404;53.974;-1.086;2023-01-31T16:00:36;101869.81;;;3.08;89.12
33265;BME280;31404;53.974;-1.086;2023-01-31T16:05:38;101851.01;;;2.93;92.67
33265;BME280;31404;53.974;-1.086;2023-01-31T16:10:35;101824.84;;;2.51;95.02
33265;BME280;31404;53.974;-1.086;2023-01-31T16:15:34;101845.58;;;2.98;93.38
33265;BME280;31404;53.974;-1.086;2023-01-31T16:20:39;101827.47;;;2.86;93.72
33265;BME280;31404;53.974;-1.086;2023-01-31T16:25:35;101829.30;;;2.74;96.72
33265;BME280;31404;53.974;-1.086;2023-01-31T16:30:34;101854.82;;;2.01;100.00
33265;BME280;31404;53.974;-1.086;2023-01-31T16:35:34;101849.91;;;2.31;98.99
33265;BME280;31404;53.974;-1.086;2023-01-31T16:40:42;101835.98;;;2.14;99.20
33265;BME280;31404;53.974;-1.086;2023-01-31T16:45:35;101838.11;;;2.27;98.44
33265;BME280;31404;53.974;-1.086;2023-01-31T16:50:35;101838.55;;;2.32;99.17
33265;BME280;31404;53.974;-1.086;2023-01-31T16:55:34;101836.15;;;2.07;100.00
33265;BME280;31404;53.974;-1.086;2023-01-31T17:00:34;101836.09;;;2.59;97.00
33265;BME280;31404;53.974;-1.086;2023-01-31T17:05:39;101836.53;;;2.49;97.27
33265;BME280;31404;53.974;-1.086;2023-01-31T17:10:35;101847.41;;;2.46;96.34
33265;BME280;31404;53.974;-1.086;2023-01-31T17:20:35;101838.31;;;2.72;94.20
33265;BME280;31404;53.974;-1.086;2023-01-31T17:25:34;101836.41;;;2.65;93.89
33265;BME280;31404;53.974;-1.086;2023-01-31T17:35:36;101840.14;;;2.07;95.86
33265;BME280;31404;53.974;-1.086;2023-01-31T17:40:37;101848.53;;;2.20;96.17
33265;BME280;31404;53.974;-1.086;2023-01-31T17:45:34;101845.52;;;2.69;94.53
33265;BME280;31404;53.974;-1.086;2023-01-31T17:50:39;101842.93;;;2.66;95.03
33265;BME280;31404;53.974;-1.086;2023-01-31T17:55:34;101854.08;;;2.29;97.11
33265;BME280;31404;53.974;-1.086;2023-01-31T18:00:34;101859.24;;;2.41;96.61
33265;BME280;31404;53.974;-1.086;2023-01-31T18:05:34;101865.29;;;2.81;95.76
33265;BME280;31404;53.974;-1.086;2023-01-31T18:10:34;101870.78;;;2.43;96.02
33265;BME280;31404;53.974;-1.086;2023-01-31T18:15:35;101854.98;;;1.61;100.00
33265;BME280;31404;53.974;-1.086;2023-01-31T18:20:36;101845.17;;;1.80;100.00
33265;BME280;31404;53.974;-1.086;2023-01-31T18:25:34;101843.01;;;1.59;100.00
33265;BME280;31404;53.974;-1.086;2023-01-31T18:30:35;101843.09;;;2.02;100.00
33265;BME280;31404;53.974;-1.086;2023-01-31T18:35:35;101841.73;;;2.26;99.37
33265;BME280;31404;53.974;-1.086;2023-01-31T18:45:36;101846.01;;;2.20;99.59
33265;BME280;31404;53.974;-1.086;2023-01-31T18:50:36;101834.42;;;2.30;99.72
33265;BME280;31404;53.974;-1.086;2023-01-31T18:55:35;101844.83;;;2.72;97.44
33265;BME280;31404;53.974;-1.086;2023-01-31T19:00:35;101835.03;;;2.66;97.80
33265;BME280;31404;53.974;-1.086;2023-01-31T19:05:36;101814.91;;;2.35;100.00
33265;BME280;31404;53.974;-1.086;2023-01-31T19:10:35;101819.11;;;2.42;100.00
33265;BME280;31404;53.974;-1.086;2023-01-31T19:15:35;101827.87;;;2.37;100.00
33265;BME280;31404;53.974;-1.086;2023-01-31T19:20:34;101832.48;;;2.19;100.00
33265;BME280;31404;53.974;-1.086;2023-01-31T19:25:37;101819.10;;;2.49;97.66
33265;BME280;31404;53.974;-1.086;2023-01-31T19:30:35;101791.12;;;2.94;94.40
33265;BME280;31404;53.974;-1.086;2023-01-31T19:35:35;101795.01;;;3.11;91.62
33265;BME280;31404;53.974;-1.086;2023-01-31T19:40:35;101815.94;;;2.58;94.68
33265;BME280;31404;53.974;-1.086;2023-01-31T19:45:35;101783.97;;;2.23;96.68
33265;BME280;31404;53.974;-1.086;2023-01-31T19:50:34;101807.45;;;2.62;94.75
33265;BME280;31404;53.974;-1.086;2023-01-31T19:55:34;101795.68;;;2.85;94.83
33265;BME280;31404;53.974;-1.086;2023-01-31T20:00:34;101797.15;;;4.01;89.30
33265;BME280;31404;53.974;-1.086;2023-01-31T20:05:34;101802.75;;;3.86;90.49
33265;BME280;31404;53.974;-1.086;2023-01-31T20:10:34;101804.68;;;3.61;91.33
33265;BME280;31404;53.974;-1.086;2023-01-31T20:15:34;101799.15;;;3.63;93.17
33265;BME280;31404;53.974;-1.086;2023-01-31T20:20:35;101824.60;;;2.87;98.43
33265;BME280;31404;53.974;-1.086;2023-01-31T20:25:35;101801.76;;;3.64;95.32
33265;BME280;31404;53.974;-1.086;2023-01-31T20:35:34;101818.49;;;3.07;99.83
33265;BME280;31404;53.974;-1.086;2023-01-31T20:40:35;101815.04;;;3.54;97.41
33265;BME280;31404;53.974;-1.086;2023-01-31T20:45:34;101804.27;;;3.08;100.00
33265;BME280;31404;53.974;-1.086;2023-01-31T20:50:34;101796.59;;;3.62;98.77
33265;BME280;31404;53.974;-1.086;2023-01-31T20:55:35;101825.83;;;2.76;100.00
33265;BME280;31404;53.974;-1.086;2023-01-31T21:00:35;101795.91;;;2.97;100.00
33265;BME280;31404;53.974;-1.086;2023-01-31T21:05:35;101778.87;;;3.43;99.54
33265;BME280;31404;53.974;-1.086;2023-01-31T21:10:34;101787.99;;;3.19;100.00
33265;BME280;31404;53.974;-1.086;2023-01-31T21:15:34;101788.03;;;2.91;100.00
33265;BME280;31404;53.974;-1.086;2023-01-31T21:20:35;101792.36;;;2.74;100.00
33265;BME280;31404;53.974;-1.086;2023-01-31T21:25:35;101792.91;;;3.00;100.00
33265;BME280;31404;53.974;-1.086;2023-01-31T21:30:35;101788.84;;;3.05;100.00
33265;BME280;31404;53.974;-1.086;2023-01-31T21:35:35;101805.04;;;3.44;98.44
33265;BME280;31404;53.974;-1.086;2023-01-31T21:40:35;101804.93;;;3.73;96.16
33265;BME280;31404;53.974;-1.086;2023-01-31T21:45:35;101806.44;;;3.45;97.49
33265;BME280;31404;53.974;-1.086;2023-01-31T21:50:35;101815.96;;;3.69;96.81
33265;BME280;31404;53.974;-1.086;2023-01-31T21:55:35;101816.17;;;2.90;100.00
33265;BME280;31404;53.974;-1.086;2023-01-31T22:00:35;101812.52;;;3.22;99.05
33265;BME280;31404;53.974;-1.086;2023-01-31T22:05:35;101791.30;;;3.94;95.12
33265;BME280;31404;53.974;-1.086;2023-01-31T22:10:35;101789.64;;;3.78;95.86
33265;BME280;31404;53.974;-1.086;2023-01-31T22:15:34;101775.02;;;4.41;92.12
33265;BME280;31404;53.974;-1.086;2023-01-31T22:20:35;101781.67;;;3.65;95.38
33265;BME280;31404;53.974;-1.086;2023-01-31T22:25:36;101796.77;;;2.80;99.77
33265;BME280;31404;53.974;-1.086;2023-01-31T22:30:35;101784.45;;;3.25;98.62
33265;BME280;31404;53.974;-1.086;2023-01-31T22:35:35;101777.68;;;2.73;100.00
33265;BME280;31404;53.974;-1.086;2023-01-31T22:40:34;101797.99;;;2.75;100.00
33265;BME280;31404;53.974;-1.086;2023-01-31T22:45:34;101771.08;;;3.35;99.93
33265;BME280;31404;53.974;-1.086;2023-01-31T22:50:34;101770.11;;;2.94;100.00
33265;BME280;31404;53.974;-1.086;2023-01-31T22:55:37;101748.03;;;2.76;100.00
33265;BME280;31404;53.974;-1.086;2023-01-31T23:00:36;101753.22;;;2.82;100.00
33265;BME280;31404;53.974;-1.086;2023-01-31T23:10:35;101759.27;;;2.68;100.00
33265;BME280;31404;53.974;-1.086;2023-01-31T23:15:35;101755.47;;;2.45;100.00
33265;BME280;31404;53.974;-1.086;2023-01-31T23:20:35;101747.57;;;2.74;100.00
33265;BME280;31404;53.974;-1.086;2023-01-31T23:25:34;101763.63;;;2.46;100.00
33265;BME280;31404;53.974;-1.086;2023-01-31T23:30:34;101777.60;;;2.25;100.00
33265;BME280;31404;53.974;-1.086;2023-01-31T23:35:34;101780.27;;;2.76;100.00
33265;BME280;31404;53.974;-1.086;2023-01-31T23:40:34;101782.77;;;3.08;100.00
33265;BME280;31404;53.974;-1.086;2023-01-31T23:45:34;101782.99;;;3.78;98.14
33265;BME280;31404;53.974;-1.086;2023-01-31T23:50:36;101780.41;;;3.00;100.00
33265;BME280;31404;53.974;-1.086;2023-01-31T23:55:35;101762.40;;;2.53;100.00
